Eastonville, Colorado
Current Conditions -  °F | °C
As of 2:14 PM on Tuesday 21 Oct 2014 (Local Time) from KFLY Reporting Station
Clear Clear  
Wind Chill: 68°   Ceiling: Unl
Heat Index: 68°   Visibility: 10mi
Dew Point: 35°   Wind: 15mph
Humidity: 29%   Direction: 180°S
Pressure: 30.07"   Gusts: 22mph
Location:  39.0051°N, 104.503°W
Report Text: KFLY 212014Z AUTO 18013G19KT 10SM CLR 20/02 A3007 RMK AO2 T01990015
Loading
Personal Weather Stations






























Interactive Weather Map
Tropical Storm Tracking
New forecast layout! Learn more

10-Day Weather Forecast

Advertisements
Track Severe Weather on mobile